aviador You're here:

K2W6 Decoded Metar

CAPT DUKE RGNL in MD, USA
Report Time2018-05-28 04:57:00
UTC Time2018-05-28 05:09:54
Flight Rules mvfr MVFR
WindCalm
Visibility6437 m
Phenomena:N/A
Clouds:Scattered 003 Hf
Broken 012 Hf
Overcast 043 Hf
Ceiling1,200 ft
Temp21°C (ISA +6)
Dew Point21°C (100% RH)
QNH1018 hPa
Density Alt1,037 ft
Elevation144 ft
Report Wrong Elevation
Raw Report
K2W6 280457Z AUTO 00000KT 4SM SCT003 BKN012 OVC043 21/21 A3005 RMK
AO1=

Extra information for K2W6:More info

Metar Taf Metar & Taf Last 4 Metars F.Rules Stats Wind Profile Meteogram Temp Stats Airport Information Weather charts Add Link Nearby VenuesMetar ALERT Operation Metar Decoded Social comments

AIRNAV info for K2W6